sensor_id;sensor_type;location;lat;lon;timestamp;P1;durP1;ratioP1;P2;durP2;ratioP2
43152;SDS011;28756;49.064;9.290;2023-06-14T00:01:46;2.88;;;2.45;;
43152;SDS011;28756;49.064;9.290;2023-06-14T00:04:12;4.43;;;2.85;;
43152;SDS011;28756;49.064;9.290;2023-06-14T00:06:38;2.80;;;2.50;;
43152;SDS011;28756;49.064;9.290;2023-06-14T00:09:06;2.78;;;2.42;;
43152;SDS011;28756;49.064;9.290;2023-06-14T00:11:33;3.65;;;2.50;;
43152;SDS011;28756;49.064;9.290;2023-06-14T00:13:59;4.80;;;2.63;;
43152;SDS011;28756;49.064;9.290;2023-06-14T00:16:25;3.63;;;2.70;;
43152;SDS011;28756;49.064;9.290;2023-06-14T00:18:50;4.07;;;2.78;;
43152;SDS011;28756;49.064;9.290;2023-06-14T00:21:19;4.40;;;2.67;;
43152;SDS011;28756;49.064;9.290;2023-06-14T00:23:45;4.45;;;2.63;;
43152;SDS011;28756;49.064;9.290;2023-06-14T00:26:11;3.20;;;2.50;;
43152;SDS011;28756;49.064;9.290;2023-06-14T00:28:36;2.83;;;2.53;;
43152;SDS011;28756;49.064;9.290;2023-06-14T00:31:02;3.83;;;2.80;;
43152;SDS011;28756;49.064;9.290;2023-06-14T00:33:28;3.33;;;2.88;;
43152;SDS011;28756;49.064;9.290;2023-06-14T00:35:54;3.28;;;2.67;;
43152;SDS011;28756;49.064;9.290;2023-06-14T00:38:20;4.22;;;2.80;;
43152;SDS011;28756;49.064;9.290;2023-06-14T00:40:46;4.03;;;2.40;;
43152;SDS011;28756;49.064;9.290;2023-06-14T00:43:12;3.50;;;2.70;;
43152;SDS011;28756;49.064;9.290;2023-06-14T00:45:37;4.05;;;2.55;;
43152;SDS011;28756;49.064;9.290;2023-06-14T00:48:03;3.55;;;2.70;;
43152;SDS011;28756;49.064;9.290;2023-06-14T00:50:31;4.82;;;2.90;;
43152;SDS011;28756;49.064;9.290;2023-06-14T00:52:58;4.20;;;2.70;;
43152;SDS011;28756;49.064;9.290;2023-06-14T00:55:27;4.32;;;2.67;;
43152;SDS011;28756;49.064;9.290;2023-06-14T00:57:54;3.60;;;2.63;;
43152;SDS011;28756;49.064;9.290;2023-06-14T01:00:21;4.15;;;2.72;;
43152;SDS011;28756;49.064;9.290;2023-06-14T01:02:47;3.63;;;2.58;;
43152;SDS011;28756;49.064;9.290;2023-06-14T01:05:14;3.17;;;2.53;;
43152;SDS011;28756;49.064;9.290;2023-06-14T01:10:52;3.78;;;2.70;;
43152;SDS011;28756;49.064;9.290;2023-06-14T01:13:38;2.88;;;2.58;;
43152;SDS011;28756;49.064;9.290;2023-06-14T01:16:07;2.50;;;2.30;;
43152;SDS011;28756;49.064;9.290;2023-06-14T01:18:33;3.60;;;2.47;;
43152;SDS011;28756;49.064;9.290;2023-06-14T01:21:00;2.80;;;2.50;;
43152;SDS011;28756;49.064;9.290;2023-06-14T01:23:30;2.95;;;2.40;;
43152;SDS011;28756;49.064;9.290;2023-06-14T01:26:00;5.00;;;2.83;;
43152;SDS011;28756;49.064;9.290;2023-06-14T01:28:28;3.15;;;2.60;;
43152;SDS011;28756;49.064;9.290;2023-06-14T01:30:59;4.00;;;2.67;;
43152;SDS011;28756;49.064;9.290;2023-06-14T01:33:30;3.28;;;2.72;;
43152;SDS011;28756;49.064;9.290;2023-06-14T01:35:58;4.50;;;2.65;;
43152;SDS011;28756;49.064;9.290;2023-06-14T01:38:25;6.65;;;2.70;;
43152;SDS011;28756;49.064;9.290;2023-06-14T01:40:52;4.65;;;2.63;;
43152;SDS011;28756;49.064;9.290;2023-06-14T01:43:21;3.45;;;2.63;;
43152;SDS011;28756;49.064;9.290;2023-06-14T01:45:47;3.63;;;2.72;;
43152;SDS011;28756;49.064;9.290;2023-06-14T01:48:15;3.03;;;2.45;;
43152;SDS011;28756;49.064;9.290;2023-06-14T01:50:40;3.30;;;2.70;;
43152;SDS011;28756;49.064;9.290;2023-06-14T01:53:07;4.15;;;3.08;;
43152;SDS011;28756;49.064;9.290;2023-06-14T01:55:33;7.05;;;3.08;;
43152;SDS011;28756;49.064;9.290;2023-06-14T01:58:02;3.50;;;2.90;;
43152;SDS011;28756;49.064;9.290;2023-06-14T02:00:32;5.28;;;3.05;;
43152;SDS011;28756;49.064;9.290;2023-06-14T02:02:58;3.47;;;2.78;;
43152;SDS011;28756;49.064;9.290;2023-06-14T02:05:23;3.42;;;2.95;;
43152;SDS011;28756;49.064;9.290;2023-06-14T02:07:49;4.80;;;3.13;;
43152;SDS011;28756;49.064;9.290;2023-06-14T02:10:15;3.28;;;2.90;;
43152;SDS011;28756;49.064;9.290;2023-06-14T02:12:42;4.32;;;2.90;;
43152;SDS011;28756;49.064;9.290;2023-06-14T02:15:08;3.65;;;2.80;;
43152;SDS011;28756;49.064;9.290;2023-06-14T02:17:41;3.72;;;3.13;;
43152;SDS011;28756;49.064;9.290;2023-06-14T02:20:08;4.13;;;2.78;;
43152;SDS011;28756;49.064;9.290;2023-06-14T02:22:35;4.28;;;2.80;;
43152;SDS011;28756;49.064;9.290;2023-06-14T02:25:00;3.33;;;2.70;;
43152;SDS011;28756;49.064;9.290;2023-06-14T02:27:26;4.05;;;2.70;;
43152;SDS011;28756;49.064;9.290;2023-06-14T02:29:52;4.07;;;2.90;;
43152;SDS011;28756;49.064;9.290;2023-06-14T02:32:17;4.03;;;2.47;;
43152;SDS011;28756;49.064;9.290;2023-06-14T02:34:43;2.85;;;2.53;;
43152;SDS011;28756;49.064;9.290;2023-06-14T02:37:09;5.63;;;3.15;;
43152;SDS011;28756;49.064;9.290;2023-06-14T02:39:36;4.95;;;3.45;;
43152;SDS011;28756;49.064;9.290;2023-06-14T02:42:01;3.33;;;2.78;;
43152;SDS011;28756;49.064;9.290;2023-06-14T02:44:27;4.15;;;3.10;;
43152;SDS011;28756;49.064;9.290;2023-06-14T02:46:54;4.47;;;3.28;;
43152;SDS011;28756;49.064;9.290;2023-06-14T02:49:21;4.03;;;3.25;;
43152;SDS011;28756;49.064;9.290;2023-06-14T02:51:47;6.10;;;3.13;;
43152;SDS011;28756;49.064;9.290;2023-06-14T02:54:13;4.28;;;3.40;;
43152;SDS011;28756;49.064;9.290;2023-06-14T02:56:39;4.53;;;2.88;;
43152;SDS011;28756;49.064;9.290;2023-06-14T02:59:05;4.45;;;3.40;;
43152;SDS011;28756;49.064;9.290;2023-06-14T03:01:32;4.07;;;3.00;;
43152;SDS011;28756;49.064;9.290;2023-06-14T03:04:05;3.72;;;3.08;;
43152;SDS011;28756;49.064;9.290;2023-06-14T03:06:35;4.47;;;3.30;;
43152;SDS011;28756;49.064;9.290;2023-06-14T03:09:01;3.47;;;3.05;;
43152;SDS011;28756;49.064;9.290;2023-06-14T03:11:31;5.13;;;3.13;;
43152;SDS011;28756;49.064;9.290;2023-06-14T03:13:57;5.75;;;2.92;;
43152;SDS011;28756;49.064;9.290;2023-06-14T03:16:24;6.70;;;3.10;;
43152;SDS011;28756;49.064;9.290;2023-06-14T03:18:52;4.45;;;3.20;;
43152;SDS011;28756;49.064;9.290;2023-06-14T03:21:18;3.58;;;3.00;;
43152;SDS011;28756;49.064;9.290;2023-06-14T03:23:45;4.82;;;3.13;;
43152;SDS011;28756;49.064;9.290;2023-06-14T03:26:12;3.92;;;3.40;;
43152;SDS011;28756;49.064;9.290;2023-06-14T03:28:39;4.30;;;2.95;;
43152;SDS011;28756;49.064;9.290;2023-06-14T03:31:06;3.75;;;2.80;;
43152;SDS011;28756;49.064;9.290;2023-06-14T03:33:32;3.60;;;3.05;;
43152;SDS011;28756;49.064;9.290;2023-06-14T03:35:57;4.50;;;3.00;;
43152;SDS011;28756;49.064;9.290;2023-06-14T03:38:23;5.35;;;3.30;;
43152;SDS011;28756;49.064;9.290;2023-06-14T03:40:49;3.45;;;2.72;;
43152;SDS011;28756;49.064;9.290;2023-06-14T03:43:14;4.38;;;2.80;;
43152;SDS011;28756;49.064;9.290;2023-06-14T03:45:40;4.18;;;3.30;;
43152;SDS011;28756;49.064;9.290;2023-06-14T03:48:06;3.90;;;2.97;;
43152;SDS011;28756;49.064;9.290;2023-06-14T03:50:33;5.25;;;3.28;;
43152;SDS011;28756;49.064;9.290;2023-06-14T03:52:59;4.63;;;2.70;;
43152;SDS011;28756;49.064;9.290;2023-06-14T03:55:26;3.30;;;2.90;;
43152;SDS011;28756;49.064;9.290;2023-06-14T03:57:52;4.15;;;3.50;;
43152;SDS011;28756;49.064;9.290;2023-06-14T04:00:18;3.38;;;3.05;;
43152;SDS011;28756;49.064;9.290;2023-06-14T04:02:44;3.25;;;2.90;;
43152;SDS011;28756;49.064;9.290;2023-06-14T04:05:10;5.70;;;3.15;;
43152;SDS011;28756;49.064;9.290;2023-06-14T04:07:36;3.30;;;3.00;;
43152;SDS011;28756;49.064;9.290;2023-06-14T04:10:09;4.45;;;2.70;;
43152;SDS011;28756;49.064;9.290;2023-06-14T04:12:38;6.63;;;3.22;;
43152;SDS011;28756;49.064;9.290;2023-06-14T04:15:04;4.78;;;3.38;;
43152;SDS011;28756;49.064;9.290;2023-06-14T04:17:31;4.13;;;3.10;;
43152;SDS011;28756;49.064;9.290;2023-06-14T04:20:01;5.05;;;3.50;;
43152;SDS011;28756;49.064;9.290;2023-06-14T04:22:29;4.88;;;3.42;;
43152;SDS011;28756;49.064;9.290;2023-06-14T04:24:56;4.80;;;3.40;;
43152;SDS011;28756;49.064;9.290;2023-06-14T04:27:26;4.85;;;3.67;;
43152;SDS011;28756;49.064;9.290;2023-06-14T04:29:53;4.75;;;3.40;;
43152;SDS011;28756;49.064;9.290;2023-06-14T04:32:25;4.43;;;3.45;;
43152;SDS011;28756;49.064;9.290;2023-06-14T04:34:55;6.53;;;3.92;;
43152;SDS011;28756;49.064;9.290;2023-06-14T04:37:22;4.97;;;4.22;;
43152;SDS011;28756;49.064;9.290;2023-06-14T04:39:48;4.72;;;3.92;;
43152;SDS011;28756;49.064;9.290;2023-06-14T04:42:15;6.68;;;3.80;;
43152;SDS011;28756;49.064;9.290;2023-06-14T04:44:41;4.65;;;3.85;;
43152;SDS011;28756;49.064;9.290;2023-06-14T04:47:08;5.50;;;4.00;;
43152;SDS011;28756;49.064;9.290;2023-06-14T04:49:39;5.40;;;3.70;;
43152;SDS011;28756;49.064;9.290;2023-06-14T04:52:05;5.93;;;3.90;;
43152;SDS011;28756;49.064;9.290;2023-06-14T04:54:35;5.07;;;4.30;;
43152;SDS011;28756;49.064;9.290;2023-06-14T04:57:06;8.27;;;4.10;;
43152;SDS011;28756;49.064;9.290;2023-06-14T04:59:33;6.45;;;4.20;;
43152;SDS011;28756;49.064;9.290;2023-06-14T05:02:00;4.60;;;4.15;;
43152;SDS011;28756;49.064;9.290;2023-06-14T05:04:26;3.85;;;3.38;;
43152;SDS011;28756;49.064;9.290;2023-06-14T05:06:53;4.78;;;4.28;;
43152;SDS011;28756;49.064;9.290;2023-06-14T05:09:22;6.82;;;4.25;;
43152;SDS011;28756;49.064;9.290;2023-06-14T05:11:48;5.32;;;4.10;;
43152;SDS011;28756;49.064;9.290;2023-06-14T05:14:15;5.35;;;3.78;;
43152;SDS011;28756;49.064;9.290;2023-06-14T05:16:41;4.57;;;4.13;;
43152;SDS011;28756;49.064;9.290;2023-06-14T05:19:07;4.50;;;3.55;;
43152;SDS011;28756;49.064;9.290;2023-06-14T05:21:36;6.20;;;4.07;;
43152;SDS011;28756;49.064;9.290;2023-06-14T05:24:02;4.72;;;4.22;;
43152;SDS011;28756;49.064;9.290;2023-06-14T05:26:28;5.47;;;4.20;;
43152;SDS011;28756;49.064;9.290;2023-06-14T05:28:54;6.35;;;3.88;;
43152;SDS011;28756;49.064;9.290;2023-06-14T05:31:21;6.57;;;3.92;;
43152;SDS011;28756;49.064;9.290;2023-06-14T05:33:51;4.50;;;3.70;;
43152;SDS011;28756;49.064;9.290;2023-06-14T05:36:17;5.85;;;4.10;;
43152;SDS011;28756;49.064;9.290;2023-06-14T05:38:44;5.20;;;3.63;;
43152;SDS011;28756;49.064;9.290;2023-06-14T05:41:10;4.70;;;4.20;;
43152;SDS011;28756;49.064;9.290;2023-06-14T05:43:36;6.72;;;4.03;;
43152;SDS011;28756;49.064;9.290;2023-06-14T05:46:02;5.72;;;3.70;;
43152;SDS011;28756;49.064;9.290;2023-06-14T05:48:28;5.53;;;3.55;;
43152;SDS011;28756;49.064;9.290;2023-06-14T05:50:55;5.18;;;3.95;;
43152;SDS011;28756;49.064;9.290;2023-06-14T05:53:21;5.40;;;3.88;;
43152;SDS011;28756;49.064;9.290;2023-06-14T05:55:47;4.82;;;3.75;;
43152;SDS011;28756;49.064;9.290;2023-06-14T05:58:12;4.05;;;3.45;;
43152;SDS011;28756;49.064;9.290;2023-06-14T06:00:39;6.22;;;4.03;;
43152;SDS011;28756;49.064;9.290;2023-06-14T06:03:05;4.78;;;3.90;;
43152;SDS011;28756;49.064;9.290;2023-06-14T06:05:33;6.88;;;3.85;;
43152;SDS011;28756;49.064;9.290;2023-06-14T06:07:58;5.90;;;3.90;;
43152;SDS011;28756;49.064;9.290;2023-06-14T06:10:25;6.53;;;4.55;;
43152;SDS011;28756;49.064;9.290;2023-06-14T06:12:51;14.90;;;3.50;;
43152;SDS011;28756;49.064;9.290;2023-06-14T06:15:19;4.63;;;3.60;;
43152;SDS011;28756;49.064;9.290;2023-06-14T06:17:45;4.70;;;3.72;;
43152;SDS011;28756;49.064;9.290;2023-06-14T06:20:11;5.35;;;3.78;;
43152;SDS011;28756;49.064;9.290;2023-06-14T06:22:37;4.10;;;3.35;;
43152;SDS011;28756;49.064;9.290;2023-06-14T06:25:04;4.90;;;3.95;;
43152;SDS011;28756;49.064;9.290;2023-06-14T06:27:32;5.88;;;3.55;;
43152;SDS011;28756;49.064;9.290;2023-06-14T06:29:57;6.97;;;3.60;;
43152;SDS011;28756;49.064;9.290;2023-06-14T06:32:23;5.32;;;3.50;;
43152;SDS011;28756;49.064;9.290;2023-06-14T06:34:49;5.15;;;3.42;;
43152;SDS011;28756;49.064;9.290;2023-06-14T06:37:15;6.18;;;3.78;;
43152;SDS011;28756;49.064;9.290;2023-06-14T06:39:41;4.22;;;3.38;;
43152;SDS011;28756;49.064;9.290;2023-06-14T06:42:07;4.63;;;3.53;;
43152;SDS011;28756;49.064;9.290;2023-06-14T06:44:33;3.88;;;3.40;;
43152;SDS011;28756;49.064;9.290;2023-06-14T06:46:58;6.25;;;3.42;;
43152;SDS011;28756;49.064;9.290;2023-06-14T06:49:24;3.78;;;3.47;;
43152;SDS011;28756;49.064;9.290;2023-06-14T06:52:03;4.13;;;3.45;;
43152;SDS011;28756;49.064;9.290;2023-06-14T06:54:31;3.67;;;3.28;;
43152;SDS011;28756;49.064;9.290;2023-06-14T06:56:57;5.57;;;3.20;;
43152;SDS011;28756;49.064;9.290;2023-06-14T06:59:23;3.88;;;3.58;;
43152;SDS011;28756;49.064;9.290;2023-06-14T07:01:49;5.10;;;3.45;;
43152;SDS011;28756;49.064;9.290;2023-06-14T07:04:15;4.68;;;3.13;;
43152;SDS011;28756;49.064;9.290;2023-06-14T07:06:41;12.32;;;3.60;;
43152;SDS011;28756;49.064;9.290;2023-06-14T07:09:08;3.53;;;2.90;;
43152;SDS011;28756;49.064;9.290;2023-06-14T07:11:38;4.35;;;3.53;;
43152;SDS011;28756;49.064;9.290;2023-06-14T07:14:04;4.18;;;3.40;;
43152;SDS011;28756;49.064;9.290;2023-06-14T07:16:30;3.45;;;3.15;;
43152;SDS011;28756;49.064;9.290;2023-06-14T07:18:56;4.07;;;3.30;;
43152;SDS011;28756;49.064;9.290;2023-06-14T07:21:22;4.97;;;3.35;;
43152;SDS011;28756;49.064;9.290;2023-06-14T07:23:48;4.13;;;2.85;;
43152;SDS011;28756;49.064;9.290;2023-06-14T07:26:13;5.88;;;2.75;;
43152;SDS011;28756;49.064;9.290;2023-06-14T07:28:39;10.20;;;3.30;;
43152;SDS011;28756;49.064;9.290;2023-06-14T07:31:05;5.72;;;3.30;;
43152;SDS011;28756;49.064;9.290;2023-06-14T07:33:31;3.25;;;2.85;;
43152;SDS011;28756;49.064;9.290;2023-06-14T07:35:57;3.22;;;2.88;;
43152;SDS011;28756;49.064;9.290;2023-06-14T07:38:23;5.57;;;3.50;;
43152;SDS011;28756;49.064;9.290;2023-06-14T07:40:48;5.25;;;2.80;;
43152;SDS011;28756;49.064;9.290;2023-06-14T07:43:14;3.47;;;3.00;;
43152;SDS011;28756;49.064;9.290;2023-06-14T07:45:40;3.15;;;2.83;;
43152;SDS011;28756;49.064;9.290;2023-06-14T07:48:05;3.35;;;3.00;;
43152;SDS011;28756;49.064;9.290;2023-06-14T07:50:31;4.05;;;2.75;;
43152;SDS011;28756;49.064;9.290;2023-06-14T07:52:57;3.40;;;3.10;;
43152;SDS011;28756;49.064;9.290;2023-06-14T07:55:23;7.40;;;3.92;;
43152;SDS011;28756;49.064;9.290;2023-06-14T07:57:50;4.68;;;2.95;;
43152;SDS011;28756;49.064;9.290;2023-06-14T08:00:16;3.97;;;2.60;;
43152;SDS011;28756;49.064;9.290;2023-06-14T08:02:43;3.97;;;3.10;;
43152;SDS011;28756;49.064;9.290;2023-06-14T08:05:10;5.53;;;3.00;;
43152;SDS011;28756;49.064;9.290;2023-06-14T08:07:39;3.65;;;2.80;;
43152;SDS011;28756;49.064;9.290;2023-06-14T08:10:05;4.28;;;2.95;;
43152;SDS011;28756;49.064;9.290;2023-06-14T08:12:32;3.45;;;2.75;;
43152;SDS011;28756;49.064;9.290;2023-06-14T08:14:58;3.30;;;2.80;;
43152;SDS011;28756;49.064;9.290;2023-06-14T08:17:24;4.68;;;2.90;;
43152;SDS011;28756;49.064;9.290;2023-06-14T08:19:50;3.03;;;2.75;;
43152;SDS011;28756;49.064;9.290;2023-06-14T08:22:16;4.22;;;2.88;;
43152;SDS011;28756;49.064;9.290;2023-06-14T08:24:43;2.60;;;2.40;;
43152;SDS011;28756;49.064;9.290;2023-06-14T08:27:09;5.13;;;2.90;;
43152;SDS011;28756;49.064;9.290;2023-06-14T08:29:35;3.10;;;2.80;;
43152;SDS011;28756;49.064;9.290;2023-06-14T08:32:03;6.05;;;3.00;;
43152;SDS011;28756;49.064;9.290;2023-06-14T08:34:29;3.42;;;2.72;;
43152;SDS011;28756;49.064;9.290;2023-06-14T08:36:55;5.13;;;2.97;;
43152;SDS011;28756;49.064;9.290;2023-06-14T08:39:21;5.53;;;2.92;;
43152;SDS011;28756;49.064;9.290;2023-06-14T08:41:47;3.03;;;2.72;;
43152;SDS011;28756;49.064;9.290;2023-06-14T08:44:15;3.20;;;2.90;;
43152;SDS011;28756;49.064;9.290;2023-06-14T08:46:42;3.20;;;2.90;;
43152;SDS011;28756;49.064;9.290;2023-06-14T08:49:08;2.88;;;2.58;;
43152;SDS011;28756;49.064;9.290;2023-06-14T08:51:37;4.45;;;2.95;;
43152;SDS011;28756;49.064;9.290;2023-06-14T08:54:05;4.70;;;2.97;;
43152;SDS011;28756;49.064;9.290;2023-06-14T08:56:31;3.08;;;2.78;;
43152;SDS011;28756;49.064;9.290;2023-06-14T08:58:59;4.90;;;2.92;;
43152;SDS011;28756;49.064;9.290;2023-06-14T09:01:27;3.58;;;2.88;;
43152;SDS011;28756;49.064;9.290;2023-06-14T09:03:53;4.25;;;2.95;;
43152;SDS011;28756;49.064;9.290;2023-06-14T09:06:22;4.50;;;2.80;;
43152;SDS011;28756;49.064;9.290;2023-06-14T09:08:49;4.13;;;2.90;;
43152;SDS011;28756;49.064;9.290;2023-06-14T09:11:17;6.53;;;3.17;;
43152;SDS011;28756;49.064;9.290;2023-06-14T09:13:44;4.32;;;2.65;;
43152;SDS011;28756;49.064;9.290;2023-06-14T09:16:11;4.10;;;2.75;;
43152;SDS011;28756;49.064;9.290;2023-06-14T09:18:37;4.05;;;2.65;;
43152;SDS011;28756;49.064;9.290;2023-06-14T09:21:12;4.95;;;2.80;;
43152;SDS011;28756;49.064;9.290;2023-06-14T09:23:40;4.32;;;2.58;;
43152;SDS011;28756;49.064;9.290;2023-06-14T09:26:17;2.90;;;2.45;;
43152;SDS011;28756;49.064;9.290;2023-06-14T09:28:48;4.05;;;2.80;;
43152;SDS011;28756;49.064;9.290;2023-06-14T09:31:19;4.80;;;2.75;;
43152;SDS011;28756;49.064;9.290;2023-06-14T09:33:46;5.50;;;2.60;;
43152;SDS011;28756;49.064;9.290;2023-06-14T09:36:18;4.80;;;3.20;;
43152;SDS011;28756;49.064;9.290;2023-06-14T09:39:03;8.27;;;2.60;;
43152;SDS011;28756;49.064;9.290;2023-06-14T09:44:06;4.82;;;2.80;;
43152;SDS011;28756;49.064;9.290;2023-06-14T09:46:33;4.00;;;2.50;;
43152;SDS011;28756;49.064;9.290;2023-06-14T09:49:01;3.58;;;2.60;;
43152;SDS011;28756;49.064;9.290;2023-06-14T09:51:28;4.57;;;2.80;;
43152;SDS011;28756;49.064;9.290;2023-06-14T09:54:00;3.00;;;2.40;;
43152;SDS011;28756;49.064;9.290;2023-06-14T09:56:32;3.05;;;2.60;;
43152;SDS011;28756;49.064;9.290;2023-06-14T09:59:03;3.60;;;2.50;;
43152;SDS011;28756;49.064;9.290;2023-06-14T10:01:32;2.60;;;2.25;;
43152;SDS011;28756;49.064;9.290;2023-06-14T10:04:04;3.33;;;2.40;;
43152;SDS011;28756;49.064;9.290;2023-06-14T10:06:32;2.38;;;2.17;;
43152;SDS011;28756;49.064;9.290;2023-06-14T10:09:07;4.25;;;2.50;;
43152;SDS011;28756;49.064;9.290;2023-06-14T10:11:35;2.38;;;2.15;;
43152;SDS011;28756;49.064;9.290;2023-06-14T10:14:08;5.90;;;2.50;;
43152;SDS011;28756;49.064;9.290;2023-06-14T10:16:45;2.67;;;2.35;;
43152;SDS011;28756;49.064;9.290;2023-06-14T10:19:29;3.70;;;2.40;;
43152;SDS011;28756;49.064;9.290;2023-06-14T10:22:14;6.28;;;2.75;;
43152;SDS011;28756;49.064;9.290;2023-06-14T10:24:50;3.38;;;2.65;;
43152;SDS011;28756;49.064;9.290;2023-06-14T10:27:16;4.22;;;2.42;;
43152;SDS011;28756;49.064;9.290;2023-06-14T10:32:18;4.68;;;2.20;;
43152;SDS011;28756;49.064;9.290;2023-06-14T10:34:44;4.47;;;2.45;;
43152;SDS011;28756;49.064;9.290;2023-06-14T10:37:11;2.58;;;2.38;;
43152;SDS011;28756;49.064;9.290;2023-06-14T10:39:42;4.30;;;2.33;;
43152;SDS011;28756;49.064;9.290;2023-06-14T10:42:10;2.53;;;2.22;;
43152;SDS011;28756;49.064;9.290;2023-06-14T10:47:06;2.88;;;2.20;;
43152;SDS011;28756;49.064;9.290;2023-06-14T10:49:49;5.63;;;2.50;;
43152;SDS011;28756;49.064;9.290;2023-06-14T10:52:17;3.35;;;2.20;;
43152;SDS011;28756;49.064;9.290;2023-06-14T10:55:02;4.18;;;2.38;;
43152;SDS011;28756;49.064;9.290;2023-06-14T10:57:46;4.93;;;2.30;;
43152;SDS011;28756;49.064;9.290;2023-06-14T11:00:16;2.85;;;2.22;;
43152;SDS011;28756;49.064;9.290;2023-06-14T11:05:25;2.30;;;2.10;;
43152;SDS011;28756;49.064;9.290;2023-06-14T11:08:12;3.58;;;2.13;;
43152;SDS011;28756;49.064;9.290;2023-06-14T11:11:10;3.13;;;2.17;;
43152;SDS011;28756;49.064;9.290;2023-06-14T11:13:41;3.28;;;2.30;;
43152;SDS011;28756;49.064;9.290;2023-06-14T11:16:14;2.25;;;1.90;;
43152;SDS011;28756;49.064;9.290;2023-06-14T11:18:42;2.95;;;2.30;;
43152;SDS011;28756;49.064;9.290;2023-06-14T11:21:08;3.50;;;2.40;;
43152;SDS011;28756;49.064;9.290;2023-06-14T11:23:35;3.67;;;2.35;;
43152;SDS011;28756;49.064;9.290;2023-06-14T11:26:01;3.20;;;2.20;;
43152;SDS011;28756;49.064;9.290;2023-06-14T11:28:38;3.10;;;2.38;;
43152;SDS011;28756;49.064;9.290;2023-06-14T11:31:06;2.80;;;2.22;;
43152;SDS011;28756;49.064;9.290;2023-06-14T11:33:32;4.07;;;2.22;;
43152;SDS011;28756;49.064;9.290;2023-06-14T11:36:01;3.03;;;2.33;;
43152;SDS011;28756;49.064;9.290;2023-06-14T11:38:30;4.05;;;2.50;;
43152;SDS011;28756;49.064;9.290;2023-06-14T11:40:58;5.70;;;2.33;;
43152;SDS011;28756;49.064;9.290;2023-06-14T11:43:25;5.13;;;2.70;;
43152;SDS011;28756;49.064;9.290;2023-06-14T11:45:52;5.63;;;2.30;;
43152;SDS011;28756;49.064;9.290;2023-06-14T11:48:18;3.38;;;2.45;;
43152;SDS011;28756;49.064;9.290;2023-06-14T11:50:44;2.60;;;2.20;;
43152;SDS011;28756;49.064;9.290;2023-06-14T11:53:09;4.15;;;2.47;;
43152;SDS011;28756;49.064;9.290;2023-06-14T11:55:38;3.38;;;2.42;;
43152;SDS011;28756;49.064;9.290;2023-06-14T11:58:10;4.93;;;2.50;;
43152;SDS011;28756;49.064;9.290;2023-06-14T12:00:36;2.60;;;2.35;;
43152;SDS011;28756;49.064;9.290;2023-06-14T12:03:02;2.45;;;2.20;;
43152;SDS011;28756;49.064;9.290;2023-06-14T12:05:28;2.75;;;2.40;;
43152;SDS011;28756;49.064;9.290;2023-06-14T12:07:57;2.67;;;2.40;;
43152;SDS011;28756;49.064;9.290;2023-06-14T12:10:38;3.25;;;2.17;;
43152;SDS011;28756;49.064;9.290;2023-06-14T12:13:06;4.60;;;2.28;;
43152;SDS011;28756;49.064;9.290;2023-06-14T12:15:32;4.22;;;2.60;;
43152;SDS011;28756;49.064;9.290;2023-06-14T12:17:58;3.20;;;2.65;;
43152;SDS011;28756;49.064;9.290;2023-06-14T12:20:28;5.30;;;2.78;;
43152;SDS011;28756;49.064;9.290;2023-06-14T12:22:57;2.75;;;2.30;;
43152;SDS011;28756;49.064;9.290;2023-06-14T12:25:26;3.13;;;2.30;;
43152;SDS011;28756;49.064;9.290;2023-06-14T12:28:04;2.40;;;2.20;;
43152;SDS011;28756;49.064;9.290;2023-06-14T12:30:31;3.15;;;2.20;;
43152;SDS011;28756;49.064;9.290;2023-06-14T12:32:58;4.20;;;2.40;;
43152;SDS011;28756;49.064;9.290;2023-06-14T12:35:24;2.92;;;2.30;;
43152;SDS011;28756;49.064;9.290;2023-06-14T12:37:49;2.92;;;2.25;;
43152;SDS011;28756;49.064;9.290;2023-06-14T12:40:15;5.35;;;2.50;;
43152;SDS011;28756;49.064;9.290;2023-06-14T12:42:41;2.50;;;2.17;;
43152;SDS011;28756;49.064;9.290;2023-06-14T12:45:07;3.58;;;2.47;;
43152;SDS011;28756;49.064;9.290;2023-06-14T12:47:33;3.30;;;2.45;;
43152;SDS011;28756;49.064;9.290;2023-06-14T12:49:59;3.50;;;2.50;;
43152;SDS011;28756;49.064;9.290;2023-06-14T12:52:25;3.15;;;2.42;;
43152;SDS011;28756;49.064;9.290;2023-06-14T12:54:51;2.42;;;2.22;;
43152;SDS011;28756;49.064;9.290;2023-06-14T12:57:17;2.92;;;2.60;;
43152;SDS011;28756;49.064;9.290;2023-06-14T12:59:43;2.28;;;2.08;;
43152;SDS011;28756;49.064;9.290;2023-06-14T13:02:15;2.90;;;2.53;;
43152;SDS011;28756;49.064;9.290;2023-06-14T13:04:43;3.38;;;2.40;;
43152;SDS011;28756;49.064;9.290;2023-06-14T13:07:09;2.38;;;2.13;;
43152;SDS011;28756;49.064;9.290;2023-06-14T13:09:35;3.45;;;2.20;;
43152;SDS011;28756;49.064;9.290;2023-06-14T13:12:02;3.45;;;2.20;;
43152;SDS011;28756;49.064;9.290;2023-06-14T13:14:28;2.78;;;2.45;;
43152;SDS011;28756;49.064;9.290;2023-06-14T13:16:57;4.18;;;2.58;;
43152;SDS011;28756;49.064;9.290;2023-06-14T13:19:23;4.28;;;2.40;;
43152;SDS011;28756;49.064;9.290;2023-06-14T13:21:49;3.30;;;2.42;;
43152;SDS011;28756;49.064;9.290;2023-06-14T13:24:14;3.05;;;2.20;;
43152;SDS011;28756;49.064;9.290;2023-06-14T13:26:40;3.58;;;2.45;;
43152;SDS011;28756;49.064;9.290;2023-06-14T13:29:06;3.65;;;2.08;;
43152;SDS011;28756;49.064;9.290;2023-06-14T13:31:32;3.58;;;2.40;;
43152;SDS011;28756;49.064;9.290;2023-06-14T13:33:58;2.92;;;2.40;;
43152;SDS011;28756;49.064;9.290;2023-06-14T13:36:23;4.50;;;2.30;;
43152;SDS011;28756;49.064;9.290;2023-06-14T13:38:49;2.70;;;2.13;;
43152;SDS011;28756;49.064;9.290;2023-06-14T13:41:17;3.05;;;2.00;;
43152;SDS011;28756;49.064;9.290;2023-06-14T13:43:43;3.08;;;2.38;;
43152;SDS011;28756;49.064;9.290;2023-06-14T13:46:09;2.88;;;2.35;;
43152;SDS011;28756;49.064;9.290;2023-06-14T13:48:34;2.60;;;2.25;;
43152;SDS011;28756;49.064;9.290;2023-06-14T13:51:00;2.85;;;2.15;;
43152;SDS011;28756;49.064;9.290;2023-06-14T13:53:28;2.50;;;1.83;;
43152;SDS011;28756;49.064;9.290;2023-06-14T13:55:54;3.75;;;2.42;;
43152;SDS011;28756;49.064;9.290;2023-06-14T14:01:25;2.58;;;2.08;;
43152;SDS011;28756;49.064;9.290;2023-06-14T14:03:51;3.13;;;2.22;;
43152;SDS011;28756;49.064;9.290;2023-06-14T14:06:17;3.13;;;2.40;;
43152;SDS011;28756;49.064;9.290;2023-06-14T14:08:43;3.40;;;2.60;;
43152;SDS011;28756;49.064;9.290;2023-06-14T14:11:09;3.35;;;2.10;;
43152;SDS011;28756;49.064;9.290;2023-06-14T14:13:35;3.90;;;2.50;;
43152;SDS011;28756;49.064;9.290;2023-06-14T14:16:01;2.55;;;2.20;;
43152;SDS011;28756;49.064;9.290;2023-06-14T14:18:28;3.65;;;2.53;;
43152;SDS011;28756;49.064;9.290;2023-06-14T14:20:54;3.65;;;2.20;;
43152;SDS011;28756;49.064;9.290;2023-06-14T14:23:21;3.30;;;2.22;;
43152;SDS011;28756;49.064;9.290;2023-06-14T14:25:46;2.88;;;2.30;;
43152;SDS011;28756;49.064;9.290;2023-06-14T14:28:12;3.50;;;2.40;;
43152;SDS011;28756;49.064;9.290;2023-06-14T14:30:40;2.78;;;2.47;;
43152;SDS011;28756;49.064;9.290;2023-06-14T14:33:07;6.03;;;2.80;;
43152;SDS011;28756;49.064;9.290;2023-06-14T14:35:33;6.68;;;2.42;;
43152;SDS011;28756;49.064;9.290;2023-06-14T14:37:59;3.08;;;2.38;;
43152;SDS011;28756;49.064;9.290;2023-06-14T14:40:25;3.92;;;2.35;;
43152;SDS011;28756;49.064;9.290;2023-06-14T14:42:51;4.97;;;2.42;;
43152;SDS011;28756;49.064;9.290;2023-06-14T14:45:17;3.35;;;2.08;;
43152;SDS011;28756;49.064;9.290;2023-06-14T14:47:42;3.88;;;2.20;;
43152;SDS011;28756;49.064;9.290;2023-06-14T14:50:08;3.13;;;2.30;;
43152;SDS011;28756;49.064;9.290;2023-06-14T14:52:35;3.00;;;2.17;;
43152;SDS011;28756;49.064;9.290;2023-06-14T14:55:01;3.33;;;2.50;;
43152;SDS011;28756;49.064;9.290;2023-06-14T14:57:27;2.78;;;2.20;;
43152;SDS011;28756;49.064;9.290;2023-06-14T14:59:55;2.42;;;2.22;;
43152;SDS011;28756;49.064;9.290;2023-06-14T15:02:20;3.17;;;2.10;;
43152;SDS011;28756;49.064;9.290;2023-06-14T15:04:48;2.28;;;2.08;;
43152;SDS011;28756;49.064;9.290;2023-06-14T15:07:14;2.83;;;2.38;;